sensor_id;sensor_type;location;lat;lon;timestamp;temperature;humidity
79244;SHT31;68672;42.676;23.356;2023-07-30T00:02:15;22.14;56.19
79244;SHT31;68672;42.676;23.356;2023-07-30T00:04:40;22.13;56.13
79244;SHT31;68672;42.676;23.356;2023-07-30T00:07:06;22.17;56.16
79244;SHT31;68672;42.676;23.356;2023-07-30T00:09:31;22.14;56.23
79244;SHT31;68672;42.676;23.356;2023-07-30T00:11:56;22.12;56.21
79244;SHT31;68672;42.676;23.356;2023-07-30T00:14:22;22.08;56.21
79244;SHT31;68672;42.676;23.356;2023-07-30T00:16:47;22.06;56.38
79244;SHT31;68672;42.676;23.356;2023-07-30T00:19:13;22.05;56.57
79244;SHT31;68672;42.676;23.356;2023-07-30T00:21:38;22.02;56.66
79244;SHT31;68672;42.676;23.356;2023-07-30T00:24:04;21.98;56.70
79244;SHT31;68672;42.676;23.356;2023-07-30T00:26:29;21.99;56.66
79244;SHT31;68672;42.676;23.356;2023-07-30T00:28:55;21.99;56.74
79244;SHT31;68672;42.676;23.356;2023-07-30T00:31:20;21.92;56.91
79244;SHT31;68672;42.676;23.356;2023-07-30T00:33:46;21.89;56.98
79244;SHT31;68672;42.676;23.356;2023-07-30T00:36:11;21.85;57.01
79244;SHT31;68672;42.676;23.356;2023-07-30T00:38:36;21.88;56.99
79244;SHT31;68672;42.676;23.356;2023-07-30T00:41:05;21.85;57.03
79244;SHT31;68672;42.676;23.356;2023-07-30T00:43:30;21.82;57.34
79244;SHT31;68672;42.676;23.356;2023-07-30T00:45:55;21.79;57.25
79244;SHT31;68672;42.676;23.356;2023-07-30T00:48:21;21.77;57.40
79244;SHT31;68672;42.676;23.356;2023-07-30T00:50:47;21.74;57.57
79244;SHT31;68672;42.676;23.356;2023-07-30T00:53:16;21.72;57.58
79244;SHT31;68672;42.676;23.356;2023-07-30T00:55:44;21.69;57.68
79244;SHT31;68672;42.676;23.356;2023-07-30T00:58:12;21.66;57.69
79244;SHT31;68672;42.676;23.356;2023-07-30T01:00:37;21.64;57.73
79244;SHT31;68672;42.676;23.356;2023-07-30T01:03:03;21.61;57.82
79244;SHT31;68672;42.676;23.356;2023-07-30T01:05:29;21.58;57.87
79244;SHT31;68672;42.676;23.356;2023-07-30T01:07:54;21.54;57.98
79244;SHT31;68672;42.676;23.356;2023-07-30T01:10:21;21.51;58.00
79244;SHT31;68672;42.676;23.356;2023-07-30T01:12:48;21.50;58.03
79244;SHT31;68672;42.676;23.356;2023-07-30T01:15:13;21.47;58.07
79244;SHT31;68672;42.676;23.356;2023-07-30T01:17:40;21.41;58.24
79244;SHT31;68672;42.676;23.356;2023-07-30T01:20:06;21.43;58.17
79244;SHT31;68672;42.676;23.356;2023-07-30T01:22:31;21.41;58.18
79244;SHT31;68672;42.676;23.356;2023-07-30T01:24:57;21.35;58.25
79244;SHT31;68672;42.676;23.356;2023-07-30T01:27:25;21.38;58.30
79244;SHT31;68672;42.676;23.356;2023-07-30T01:30:17;21.30;58.39
79244;SHT31;68672;42.676;23.356;2023-07-30T01:32:44;21.26;58.57
79244;SHT31;68672;42.676;23.356;2023-07-30T01:35:14;21.24;58.65
79244;SHT31;68672;42.676;23.356;2023-07-30T01:37:41;21.16;58.68
79244;SHT31;68672;42.676;23.356;2023-07-30T01:40:09;21.14;58.79
79244;SHT31;68672;42.676;23.356;2023-07-30T01:42:34;21.11;58.74
79244;SHT31;68672;42.676;23.356;2023-07-30T01:45:00;21.08;58.81
79244;SHT31;68672;42.676;23.356;2023-07-30T01:47:25;21.07;58.96
79244;SHT31;68672;42.676;23.356;2023-07-30T01:49:51;21.07;58.90
79244;SHT31;68672;42.676;23.356;2023-07-30T01:52:19;21.04;58.95
79244;SHT31;68672;42.676;23.356;2023-07-30T01:54:44;20.99;58.96
79244;SHT31;68672;42.676;23.356;2023-07-30T01:57:10;20.99;58.97
79244;SHT31;68672;42.676;23.356;2023-07-30T01:59:35;20.96;59.04
79244;SHT31;68672;42.676;23.356;2023-07-30T02:02:04;20.94;58.99
79244;SHT31;68672;42.676;23.356;2023-07-30T02:04:29;20.92;59.25
79244;SHT31;68672;42.676;23.356;2023-07-30T02:06:57;20.90;59.24
79244;SHT31;68672;42.676;23.356;2023-07-30T02:09:23;20.90;59.25
79244;SHT31;68672;42.676;23.356;2023-07-30T02:11:48;20.92;59.21
79244;SHT31;68672;42.676;23.356;2023-07-30T02:14:13;20.86;59.31
79244;SHT31;68672;42.676;23.356;2023-07-30T02:16:39;20.85;59.47
79244;SHT31;68672;42.676;23.356;2023-07-30T02:19:07;20.85;59.31
79244;SHT31;68672;42.676;23.356;2023-07-30T02:21:32;20.82;59.44
79244;SHT31;68672;42.676;23.356;2023-07-30T02:24:01;20.80;59.57
79244;SHT31;68672;42.676;23.356;2023-07-30T02:26:26;20.76;59.61
79244;SHT31;68672;42.676;23.356;2023-07-30T02:28:52;20.77;59.52
79244;SHT31;68672;42.676;23.356;2023-07-30T02:31:17;20.77;59.74
79244;SHT31;68672;42.676;23.356;2023-07-30T02:33:46;20.75;59.72
79244;SHT31;68672;42.676;23.356;2023-07-30T02:36:11;20.75;59.81
79244;SHT31;68672;42.676;23.356;2023-07-30T02:38:42;20.73;59.80
79244;SHT31;68672;42.676;23.356;2023-07-30T02:41:07;20.72;59.88
79244;SHT31;68672;42.676;23.356;2023-07-30T02:43:33;20.72;59.91
79244;SHT31;68672;42.676;23.356;2023-07-30T02:45:58;20.69;59.99
79244;SHT31;68672;42.676;23.356;2023-07-30T02:48:24;20.65;60.09
79244;SHT31;68672;42.676;23.356;2023-07-30T02:50:52;20.61;60.32
79244;SHT31;68672;42.676;23.356;2023-07-30T02:53:17;20.59;60.37
79244;SHT31;68672;42.676;23.356;2023-07-30T02:55:43;20.61;60.44
79244;SHT31;68672;42.676;23.356;2023-07-30T02:58:08;20.57;60.45
79244;SHT31;68672;42.676;23.356;2023-07-30T03:00:34;20.56;60.46
79244;SHT31;68672;42.676;23.356;2023-07-30T03:02:59;20.57;60.44
79244;SHT31;68672;42.676;23.356;2023-07-30T03:05:27;20.55;60.66
79244;SHT31;68672;42.676;23.356;2023-07-30T03:07:53;20.51;60.75
79244;SHT31;68672;42.676;23.356;2023-07-30T03:10:18;20.55;60.72
79244;SHT31;68672;42.676;23.356;2023-07-30T03:12:44;20.52;60.84
79244;SHT31;68672;42.676;23.356;2023-07-30T03:15:09;20.46;60.94
79244;SHT31;68672;42.676;23.356;2023-07-30T03:17:35;20.48;60.81
79244;SHT31;68672;42.676;23.356;2023-07-30T03:20:00;20.45;60.87
79244;SHT31;68672;42.676;23.356;2023-07-30T03:22:28;20.44;60.93
79244;SHT31;68672;42.676;23.356;2023-07-30T03:24:56;20.39;60.95
79244;SHT31;68672;42.676;23.356;2023-07-30T03:27:22;20.39;60.99
79244;SHT31;68672;42.676;23.356;2023-07-30T03:29:47;20.39;60.99
79244;SHT31;68672;42.676;23.356;2023-07-30T03:32:12;20.38;61.14
79244;SHT31;68672;42.676;23.356;2023-07-30T03:34:38;20.42;61.14
79244;SHT31;68672;42.676;23.356;2023-07-30T03:37:03;20.39;61.14
79244;SHT31;68672;42.676;23.356;2023-07-30T03:39:29;20.41;61.12
79244;SHT31;68672;42.676;23.356;2023-07-30T03:41:54;20.41;61.20
79244;SHT31;68672;42.676;23.356;2023-07-30T03:44:20;20.42;61.30
79244;SHT31;68672;42.676;23.356;2023-07-30T03:46:45;20.45;61.41
79244;SHT31;68672;42.676;23.356;2023-07-30T03:49:11;20.51;61.23
79244;SHT31;68672;42.676;23.356;2023-07-30T03:51:36;20.51;61.21
79244;SHT31;68672;42.676;23.356;2023-07-30T03:54:05;20.52;61.24
79244;SHT31;68672;42.676;23.356;2023-07-30T03:56:30;20.56;61.10
79244;SHT31;68672;42.676;23.356;2023-07-30T03:58:56;20.57;61.14
79244;SHT31;68672;42.676;23.356;2023-07-30T04:01:21;20.55;61.22
79244;SHT31;68672;42.676;23.356;2023-07-30T04:03:47;20.57;61.19
79244;SHT31;68672;42.676;23.356;2023-07-30T04:06:12;20.61;61.13
79244;SHT31;68672;42.676;23.356;2023-07-30T04:08:40;20.64;61.06
79244;SHT31;68672;42.676;23.356;2023-07-30T04:11:09;20.62;61.11
79244;SHT31;68672;42.676;23.356;2023-07-30T04:13:34;20.66;61.00
79244;SHT31;68672;42.676;23.356;2023-07-30T04:16:00;20.69;61.00
79244;SHT31;68672;42.676;23.356;2023-07-30T04:18:25;20.73;60.94
79244;SHT31;68672;42.676;23.356;2023-07-30T04:20:50;20.79;60.85
79244;SHT31;68672;42.676;23.356;2023-07-30T04:23:19;20.83;60.55
79244;SHT31;68672;42.676;23.356;2023-07-30T04:25:44;20.89;60.28
79244;SHT31;68672;42.676;23.356;2023-07-30T04:28:09;20.89;59.59
79244;SHT31;68672;42.676;23.356;2023-07-30T04:30:35;20.94;58.89
79244;SHT31;68672;42.676;23.356;2023-07-30T04:33:00;21.03;58.22
79244;SHT31;68672;42.676;23.356;2023-07-30T04:35:25;21.07;57.99
79244;SHT31;68672;42.676;23.356;2023-07-30T04:37:51;21.14;57.36
79244;SHT31;68672;42.676;23.356;2023-07-30T04:40:16;21.22;56.37
79244;SHT31;68672;42.676;23.356;2023-07-30T04:42:44;21.26;56.50
79244;SHT31;68672;42.676;23.356;2023-07-30T04:45:11;21.30;56.53
79244;SHT31;68672;42.676;23.356;2023-07-30T04:47:36;21.41;56.53
79244;SHT31;68672;42.676;23.356;2023-07-30T04:50:05;21.47;56.30
79244;SHT31;68672;42.676;23.356;2023-07-30T04:52:30;21.55;56.08
79244;SHT31;68672;42.676;23.356;2023-07-30T04:54:56;21.57;55.69
79244;SHT31;68672;42.676;23.356;2023-07-30T04:57:21;21.64;55.53
79244;SHT31;68672;42.676;23.356;2023-07-30T04:59:47;21.71;55.46
79244;SHT31;68672;42.676;23.356;2023-07-30T05:02:12;21.78;55.48
79244;SHT31;68672;42.676;23.356;2023-07-30T05:04:38;21.82;55.17
79244;SHT31;68672;42.676;23.356;2023-07-30T05:07:03;21.89;55.43
79244;SHT31;68672;42.676;23.356;2023-07-30T05:09:29;21.91;55.24
79244;SHT31;68672;42.676;23.356;2023-07-30T05:11:54;21.93;55.18
79244;SHT31;68672;42.676;23.356;2023-07-30T05:14:20;21.95;54.87
79244;SHT31;68672;42.676;23.356;2023-07-30T05:16:45;21.95;54.77
79244;SHT31;68672;42.676;23.356;2023-07-30T05:19:10;21.99;54.66
79244;SHT31;68672;42.676;23.356;2023-07-30T05:21:36;21.96;55.02
79244;SHT31;68672;42.676;23.356;2023-07-30T05:24:02;22.06;55.37
79244;SHT31;68672;42.676;23.356;2023-07-30T05:26:28;22.08;55.06
79244;SHT31;68672;42.676;23.356;2023-07-30T05:28:53;22.13;55.12
79244;SHT31;68672;42.676;23.356;2023-07-30T05:31:18;22.24;55.00
79244;SHT31;68672;42.676;23.356;2023-07-30T05:33:44;22.33;54.97
79244;SHT31;68672;42.676;23.356;2023-07-30T05:36:09;22.42;55.30
79244;SHT31;68672;42.676;23.356;2023-07-30T05:38:35;22.53;55.38
79244;SHT31;68672;42.676;23.356;2023-07-30T05:41:00;22.63;55.25
79244;SHT31;68672;42.676;23.356;2023-07-30T05:43:26;22.71;55.07
79244;SHT31;68672;42.676;23.356;2023-07-30T05:45:51;22.80;54.65
79244;SHT31;68672;42.676;23.356;2023-07-30T05:48:16;22.88;54.44
79244;SHT31;68672;42.676;23.356;2023-07-30T05:50:42;22.98;54.26
79244;SHT31;68672;42.676;23.356;2023-07-30T05:53:07;23.07;54.30
79244;SHT31;68672;42.676;23.356;2023-07-30T05:55:36;23.18;54.24
79244;SHT31;68672;42.676;23.356;2023-07-30T05:58:01;23.31;53.66
79244;SHT31;68672;42.676;23.356;2023-07-30T06:00:26;23.48;53.31
79244;SHT31;68672;42.676;23.356;2023-07-30T06:02:52;23.66;52.63
79244;SHT31;68672;42.676;23.356;2023-07-30T06:05:17;23.80;52.20
79244;SHT31;68672;42.676;23.356;2023-07-30T06:07:45;23.97;51.86
79244;SHT31;68672;42.676;23.356;2023-07-30T06:10:14;24.10;51.02
79244;SHT31;68672;42.676;23.356;2023-07-30T06:12:39;24.25;50.81
79244;SHT31;68672;42.676;23.356;2023-07-30T06:15:08;24.42;50.76
79244;SHT31;68672;42.676;23.356;2023-07-30T06:17:34;24.55;49.87
79244;SHT31;68672;42.676;23.356;2023-07-30T06:19:59;24.57;49.63
79244;SHT31;68672;42.676;23.356;2023-07-30T06:22:25;24.52;49.87
79244;SHT31;68672;42.676;23.356;2023-07-30T06:24:50;24.59;49.36
79244;SHT31;68672;42.676;23.356;2023-07-30T06:27:15;24.62;49.65
79244;SHT31;68672;42.676;23.356;2023-07-30T06:29:44;24.67;49.85
79244;SHT31;68672;42.676;23.356;2023-07-30T06:32:12;24.69;49.02
79244;SHT31;68672;42.676;23.356;2023-07-30T06:34:38;24.78;48.92
79244;SHT31;68672;42.676;23.356;2023-07-30T06:37:03;24.85;48.73
79244;SHT31;68672;42.676;23.356;2023-07-30T06:39:29;24.90;48.80
79244;SHT31;68672;42.676;23.356;2023-07-30T06:41:54;24.95;49.35
79244;SHT31;68672;42.676;23.356;2023-07-30T06:44:20;25.03;48.98
79244;SHT31;68672;42.676;23.356;2023-07-30T06:46:45;25.06;48.21
79244;SHT31;68672;42.676;23.356;2023-07-30T06:49:14;25.15;47.68
79244;SHT31;68672;42.676;23.356;2023-07-30T06:51:39;25.19;47.98
79244;SHT31;68672;42.676;23.356;2023-07-30T06:54:07;25.29;47.62
79244;SHT31;68672;42.676;23.356;2023-07-30T06:56:32;25.37;47.45
79244;SHT31;68672;42.676;23.356;2023-07-30T06:58:59;25.46;46.58
79244;SHT31;68672;42.676;23.356;2023-07-30T07:01:24;25.50;45.89
79244;SHT31;68672;42.676;23.356;2023-07-30T07:03:59;25.53;45.89
79244;SHT31;68672;42.676;23.356;2023-07-30T07:06:24;25.61;46.25
79244;SHT31;68672;42.676;23.356;2023-07-30T07:08:50;25.67;46.33
79244;SHT31;68672;42.676;23.356;2023-07-30T07:11:15;25.80;46.34
79244;SHT31;68672;42.676;23.356;2023-07-30T07:13:40;25.89;45.94
79244;SHT31;68672;42.676;23.356;2023-07-30T07:16:06;25.97;45.30
79244;SHT31;68672;42.676;23.356;2023-07-30T07:18:31;26.06;44.09
79244;SHT31;68672;42.676;23.356;2023-07-30T07:20:57;26.05;43.95
79244;SHT31;68672;42.676;23.356;2023-07-30T07:23:22;26.12;44.21
79244;SHT31;68672;42.676;23.356;2023-07-30T07:25:47;26.15;44.22
79244;SHT31;68672;42.676;23.356;2023-07-30T07:28:13;26.28;44.82
79244;SHT31;68672;42.676;23.356;2023-07-30T07:30:38;26.31;44.87
79244;SHT31;68672;42.676;23.356;2023-07-30T07:33:04;26.40;44.79
79244;SHT31;68672;42.676;23.356;2023-07-30T07:35:31;26.49;44.87
79244;SHT31;68672;42.676;23.356;2023-07-30T07:37:56;26.61;44.65
79244;SHT31;68672;42.676;23.356;2023-07-30T07:40:22;26.77;43.71
79244;SHT31;68672;42.676;23.356;2023-07-30T07:42:50;26.84;41.67
79244;SHT31;68672;42.676;23.356;2023-07-30T07:45:22;26.87;42.25
79244;SHT31;68672;42.676;23.356;2023-07-30T07:47:47;26.93;42.00
79244;SHT31;68672;42.676;23.356;2023-07-30T07:50:13;26.91;42.13
79244;SHT31;68672;42.676;23.356;2023-07-30T07:52:38;26.96;42.02
79244;SHT31;68672;42.676;23.356;2023-07-30T07:55:04;27.01;41.97
79244;SHT31;68672;42.676;23.356;2023-07-30T07:57:39;27.04;41.83
79244;SHT31;68672;42.676;23.356;2023-07-30T08:00:06;27.15;42.23
79244;SHT31;68672;42.676;23.356;2023-07-30T08:02:31;27.31;42.32
79244;SHT31;68672;42.676;23.356;2023-07-30T08:04:57;27.48;42.72
79244;SHT31;68672;42.676;23.356;2023-07-30T08:07:22;27.63;42.18
79244;SHT31;68672;42.676;23.356;2023-07-30T08:09:50;27.81;41.82
79244;SHT31;68672;42.676;23.356;2023-07-30T08:12:17;27.95;40.87
79244;SHT31;68672;42.676;23.356;2023-07-30T08:14:45;28.07;41.10
79244;SHT31;68672;42.676;23.356;2023-07-30T08:17:10;28.18;41.36
79244;SHT31;68672;42.676;23.356;2023-07-30T08:19:35;28.30;40.98
79244;SHT31;68672;42.676;23.356;2023-07-30T08:22:01;28.39;40.42
79244;SHT31;68672;42.676;23.356;2023-07-30T08:24:26;28.41;40.04
79244;SHT31;68672;42.676;23.356;2023-07-30T08:26:52;28.51;39.82
79244;SHT31;68672;42.676;23.356;2023-07-30T08:29:17;28.61;39.23
79244;SHT31;68672;42.676;23.356;2023-07-30T08:31:42;28.74;38.92
79244;SHT31;68672;42.676;23.356;2023-07-30T08:34:11;28.87;39.10
79244;SHT31;68672;42.676;23.356;2023-07-30T08:36:36;29.01;38.32
79244;SHT31;68672;42.676;23.356;2023-07-30T08:39:02;29.13;37.28
79244;SHT31;68672;42.676;23.356;2023-07-30T08:41:30;29.23;36.43
79244;SHT31;68672;42.676;23.356;2023-07-30T08:43:55;29.36;36.62
79244;SHT31;68672;42.676;23.356;2023-07-30T08:46:21;29.47;37.13
79244;SHT31;68672;42.676;23.356;2023-07-30T08:48:46;29.59;36.92
79244;SHT31;68672;42.676;23.356;2023-07-30T08:51:12;29.60;36.42
79244;SHT31;68672;42.676;23.356;2023-07-30T08:53:38;29.72;36.48
79244;SHT31;68672;42.676;23.356;2023-07-30T08:56:05;29.85;36.69
79244;SHT31;68672;42.676;23.356;2023-07-30T08:58:32;29.96;36.49
79244;SHT31;68672;42.676;23.356;2023-07-30T09:00:59;30.04;36.03
79244;SHT31;68672;42.676;23.356;2023-07-30T09:03:27;30.14;35.56
79244;SHT31;68672;42.676;23.356;2023-07-30T09:05:53;30.14;35.12
79244;SHT31;68672;42.676;23.356;2023-07-30T09:08:18;30.12;35.45
79244;SHT31;68672;42.676;23.356;2023-07-30T09:10:44;30.18;35.95
79244;SHT31;68672;42.676;23.356;2023-07-30T09:13:11;30.33;36.33
79244;SHT31;68672;42.676;23.356;2023-07-30T09:15:39;30.46;34.95
79244;SHT31;68672;42.676;23.356;2023-07-30T09:18:05;30.58;35.64
79244;SHT31;68672;42.676;23.356;2023-07-30T09:20:41;30.75;34.74
79244;SHT31;68672;42.676;23.356;2023-07-30T09:23:08;30.87;34.07
79244;SHT31;68672;42.676;23.356;2023-07-30T09:25:35;30.97;33.77
79244;SHT31;68672;42.676;23.356;2023-07-30T09:28:00;31.10;34.10
79244;SHT31;68672;42.676;23.356;2023-07-30T09:30:26;31.21;30.40
79244;SHT31;68672;42.676;23.356;2023-07-30T09:32:56;31.31;30.51
79244;SHT31;68672;42.676;23.356;2023-07-30T09:35:22;31.40;30.41
79244;SHT31;68672;42.676;23.356;2023-07-30T09:37:50;31.50;30.45
79244;SHT31;68672;42.676;23.356;2023-07-30T09:40:34;31.58;30.23
79244;SHT31;68672;42.676;23.356;2023-07-30T09:43:02;31.74;30.84
79244;SHT31;68672;42.676;23.356;2023-07-30T09:45:28;31.85;30.06
79244;SHT31;68672;42.676;23.356;2023-07-30T09:47:54;31.98;30.45
79244;SHT31;68672;42.676;23.356;2023-07-30T09:50:21;32.09;29.95
79244;SHT31;68672;42.676;23.356;2023-07-30T09:52:50;32.12;29.71
79244;SHT31;68672;42.676;23.356;2023-07-30T09:55:16;32.12;29.80
79244;SHT31;68672;42.676;23.356;2023-07-30T09:57:43;32.22;30.41
79244;SHT31;68672;42.676;23.356;2023-07-30T10:00:10;32.39;30.23
79244;SHT31;68672;42.676;23.356;2023-07-30T10:02:41;32.53;29.80
79244;SHT31;68672;42.676;23.356;2023-07-30T10:05:11;32.64;28.03
79244;SHT31;68672;42.676;23.356;2023-07-30T10:07:41;32.73;28.82
79244;SHT31;68672;42.676;23.356;2023-07-30T10:10:08;32.88;28.37
79244;SHT31;68672;42.676;23.356;2023-07-30T10:12:36;32.94;28.46
79244;SHT31;68672;42.676;23.356;2023-07-30T10:15:02;32.96;27.81
79244;SHT31;68672;42.676;23.356;2023-07-30T10:17:27;33.06;28.13
79244;SHT31;68672;42.676;23.356;2023-07-30T10:19:58;33.06;28.10
79244;SHT31;68672;42.676;23.356;2023-07-30T10:22:45;33.17;28.03
79244;SHT31;68672;42.676;23.356;2023-07-30T10:25:12;33.22;27.92
79244;SHT31;68672;42.676;23.356;2023-07-30T10:27:40;33.36;28.12
79244;SHT31;68672;42.676;23.356;2023-07-30T10:30:09;33.51;28.24
79244;SHT31;68672;42.676;23.356;2023-07-30T10:32:39;33.68;28.54
79244;SHT31;68672;42.676;23.356;2023-07-30T10:35:05;33.79;28.07
79244;SHT31;68672;42.676;23.356;2023-07-30T10:37:31;33.92;28.13
79244;SHT31;68672;42.676;23.356;2023-07-30T10:39:56;34.10;27.82
79244;SHT31;68672;42.676;23.356;2023-07-30T10:42:21;34.16;27.75
79244;SHT31;68672;42.676;23.356;2023-07-30T10:44:47;34.33;27.55
79244;SHT31;68672;42.676;23.356;2023-07-30T10:47:14;34.50;27.08
79244;SHT31;68672;42.676;23.356;2023-07-30T10:49:40;34.74;26.66
79244;SHT31;68672;42.676;23.356;2023-07-30T10:52:11;34.87;26.46
79244;SHT31;68672;42.676;23.356;2023-07-30T10:54:37;35.09;25.80
79244;SHT31;68672;42.676;23.356;2023-07-30T10:57:03;35.15;26.13
79244;SHT31;68672;42.676;23.356;2023-07-30T10:59:36;35.18;25.72
79244;SHT31;68672;42.676;23.356;2023-07-30T11:02:04;35.35;25.56
79244;SHT31;68672;42.676;23.356;2023-07-30T11:04:33;35.38;25.47
79244;SHT31;68672;42.676;23.356;2023-07-30T11:06:59;35.45;25.50
79244;SHT31;68672;42.676;23.356;2023-07-30T11:09:26;35.49;25.69
79244;SHT31;68672;42.676;23.356;2023-07-30T11:11:54;35.60;25.17
79244;SHT31;68672;42.676;23.356;2023-07-30T11:14:21;35.77;24.89
79244;SHT31;68672;42.676;23.356;2023-07-30T11:16:52;35.93;25.23
79244;SHT31;68672;42.676;23.356;2023-07-30T11:19:19;36.01;24.68
79244;SHT31;68672;42.676;23.356;2023-07-30T11:21:48;36.08;24.81
79244;SHT31;68672;42.676;23.356;2023-07-30T11:24:14;36.08;25.22
79244;SHT31;68672;42.676;23.356;2023-07-30T11:26:40;36.18;24.56
79244;SHT31;68672;42.676;23.356;2023-07-30T11:29:21;36.21;24.58
79244;SHT31;68672;42.676;23.356;2023-07-30T11:31:47;36.23;24.20
79244;SHT31;68672;42.676;23.356;2023-07-30T11:34:16;36.16;24.32
79244;SHT31;68672;42.676;23.356;2023-07-30T11:36:43;36.21;24.34
79244;SHT31;68672;42.676;23.356;2023-07-30T11:39:10;36.12;24.38
79244;SHT31;68672;42.676;23.356;2023-07-30T11:41:35;36.11;24.59
79244;SHT31;68672;42.676;23.356;2023-07-30T11:44:02;36.14;24.39
79244;SHT31;68672;42.676;23.356;2023-07-30T11:46:30;36.25;24.86
79244;SHT31;68672;42.676;23.356;2023-07-30T11:49:15;36.39;24.60
79244;SHT31;68672;42.676;23.356;2023-07-30T11:51:42;36.51;24.07
79244;SHT31;68672;42.676;23.356;2023-07-30T11:54:19;36.52;24.17
79244;SHT31;68672;42.676;23.356;2023-07-30T11:56:53;36.59;24.14
79244;SHT31;68672;42.676;23.356;2023-07-30T11:59:20;36.62;24.33
79244;SHT31;68672;42.676;23.356;2023-07-30T12:01:47;36.61;24.55
79244;SHT31;68672;42.676;23.356;2023-07-30T12:04:12;36.62;24.40
79244;SHT31;68672;42.676;23.356;2023-07-30T12:09:19;36.62;24.01
79244;SHT31;68672;42.676;23.356;2023-07-30T12:11:54;36.65;23.99
79244;SHT31;68672;42.676;23.356;2023-07-30T12:14:24;36.56;23.69
79244;SHT31;68672;42.676;23.356;2023-07-30T12:16:55;36.51;24.46
79244;SHT31;68672;42.676;23.356;2023-07-30T12:19:22;36.49;24.24
79244;SHT31;68672;42.676;23.356;2023-07-30T12:21:47;36.55;24.16
79244;SHT31;68672;42.676;23.356;2023-07-30T12:24:12;36.44;23.85
79244;SHT31;68672;42.676;23.356;2023-07-30T12:26:38;36.31;24.10
79244;SHT31;68672;42.676;23.356;2023-07-30T12:29:24;36.28;24.23
79244;SHT31;68672;42.676;23.356;2023-07-30T12:31:50;36.27;24.11
79244;SHT31;68672;42.676;23.356;2023-07-30T12:34:19;36.25;24.06
79244;SHT31;68672;42.676;23.356;2023-07-30T12:36:47;36.20;24.40
79244;SHT31;68672;42.676;23.356;2023-07-30T12:39:13;36.23;24.38
79244;SHT31;68672;42.676;23.356;2023-07-30T12:41:41;36.28;24.45
79244;SHT31;68672;42.676;23.356;2023-07-30T12:44:06;36.20;24.60
79244;SHT31;68672;42.676;23.356;2023-07-30T12:46:32;36.05;24.62
79244;SHT31;68672;42.676;23.356;2023-07-30T12:48:58;35.90;24.92
79244;SHT31;68672;42.676;23.356;2023-07-30T12:51:32;35.80;24.37
79244;SHT31;68672;42.676;23.356;2023-07-30T12:53:58;35.73;24.72
79244;SHT31;68672;42.676;23.356;2023-07-30T12:56:23;35.64;24.99
79244;SHT31;68672;42.676;23.356;2023-07-30T12:58:48;35.60;25.47
79244;SHT31;68672;42.676;23.356;2023-07-30T13:01:14;35.54;24.80
79244;SHT31;68672;42.676;23.356;2023-07-30T13:03:40;35.45;25.13
79244;SHT31;68672;42.676;23.356;2023-07-30T13:06:10;35.32;25.39
79244;SHT31;68672;42.676;23.356;2023-07-30T13:08:36;35.19;25.64
79244;SHT31;68672;42.676;23.356;2023-07-30T13:11:04;35.06;25.60
79244;SHT31;68672;42.676;23.356;2023-07-30T13:13:29;34.92;25.65
79244;SHT31;68672;42.676;23.356;2023-07-30T13:15:55;34.75;25.84
79244;SHT31;68672;42.676;23.356;2023-07-30T13:18:23;34.61;26.18
79244;SHT31;68672;42.676;23.356;2023-07-30T13:20:49;34.47;26.30
79244;SHT31;68672;42.676;23.356;2023-07-30T13:23:15;34.45;26.76
79244;SHT31;68672;42.676;23.356;2023-07-30T13:25:40;34.41;27.00
79244;SHT31;68672;42.676;23.356;2023-07-30T13:28:06;34.30;27.08
79244;SHT31;68672;42.676;23.356;2023-07-30T13:30:37;34.23;27.34
79244;SHT31;68672;42.676;23.356;2023-07-30T13:33:05;34.14;27.46
79244;SHT31;68672;42.676;23.356;2023-07-30T13:35:33;34.12;27.25
79244;SHT31;68672;42.676;23.356;2023-07-30T13:37:59;34.06;27.10
79244;SHT31;68672;42.676;23.356;2023-07-30T13:40:24;33.90;27.39
79244;SHT31;68672;42.676;23.356;2023-07-30T13:42:50;33.86;27.47
79244;SHT31;68672;42.676;23.356;2023-07-30T13:45:18;33.76;27.38
79244;SHT31;68672;42.676;23.356;2023-07-30T13:47:43;33.73;27.14
79244;SHT31;68672;42.676;23.356;2023-07-30T13:50:12;33.76;27.26
79244;SHT31;68672;42.676;23.356;2023-07-30T13:52:40;33.72;28.53
79244;SHT31;68672;42.676;23.356;2023-07-30T13:55:05;33.66;28.66
79244;SHT31;68672;42.676;23.356;2023-07-30T13:57:31;33.63;28.37
79244;SHT31;68672;42.676;23.356;2023-07-30T13:59:56;33.63;28.28
79244;SHT31;68672;42.676;23.356;2023-07-30T14:02:21;33.59;28.64
79244;SHT31;68672;42.676;23.356;2023-07-30T14:04:47;33.54;28.06
79244;SHT31;68672;42.676;23.356;2023-07-30T14:07:15;33.51;27.98
79244;SHT31;68672;42.676;23.356;2023-07-30T14:09:41;33.46;27.82
79244;SHT31;68672;42.676;23.356;2023-07-30T14:12:11;33.45;27.84
79244;SHT31;68672;42.676;23.356;2023-07-30T14:14:36;33.41;27.33
79244;SHT31;68672;42.676;23.356;2023-07-30T14:17:02;33.38;27.43
79244;SHT31;68672;42.676;23.356;2023-07-30T14:19:31;33.35;27.69
79244;SHT31;68672;42.676;23.356;2023-07-30T14:21:57;33.38;27.88
79244;SHT31;68672;42.676;23.356;2023-07-30T14:24:23;33.42;27.62
79244;SHT31;68672;42.676;23.356;2023-07-30T14:26:49;33.48;27.79
79244;SHT31;68672;42.676;23.356;2023-07-30T14:29:14;33.51;28.16
79244;SHT31;68672;42.676;23.356;2023-07-30T14:31:40;33.48;28.16
79244;SHT31;68672;42.676;23.356;2023-07-30T14:34:05;33.49;28.03
79244;SHT31;68672;42.676;23.356;2023-07-30T14:36:36;33.46;28.01
79244;SHT31;68672;42.676;23.356;2023-07-30T14:39:02;33.39;28.40
79244;SHT31;68672;42.676;23.356;2023-07-30T14:41:27;33.38;28.56
79244;SHT31;68672;42.676;23.356;2023-07-30T14:43:53;33.31;29.01
79244;SHT31;68672;42.676;23.356;2023-07-30T14:46:18;33.27;29.25
79244;SHT31;68672;42.676;23.356;2023-07-30T14:48:43;33.18;28.73
79244;SHT31;68672;42.676;23.356;2023-07-30T14:51:12;33.15;28.64
79244;SHT31;68672;42.676;23.356;2023-07-30T14:53:37;33.12;28.88
79244;SHT31;68672;42.676;23.356;2023-07-30T14:56:03;33.10;29.00
79244;SHT31;68672;42.676;23.356;2023-07-30T14:58:29;33.04;29.04
79244;SHT31;68672;42.676;23.356;2023-07-30T15:00:57;33.08;29.12
79244;SHT31;68672;42.676;23.356;2023-07-30T15:03:22;33.04;29.47
79244;SHT31;68672;42.676;23.356;2023-07-30T15:05:48;33.03;29.50
79244;SHT31;68672;42.676;23.356;2023-07-30T15:08:14;32.92;29.10
79244;SHT31;68672;42.676;23.356;2023-07-30T15:10:39;32.88;29.40
79244;SHT31;68672;42.676;23.356;2023-07-30T15:13:07;32.84;29.47
79244;SHT31;68672;42.676;23.356;2023-07-30T15:15:33;32.78;29.26